Time;durP1;ratioP1;P1;durP2;ratioP2;P2;SDS_P1;SDS_P2;PMS_P1;PMS_P2;Temp;Humidity;BMP_temperature;BMP_pressure;BME280_temperature;BME280_humidity;BME280_pressure;Samples;Min_cycle;Max_cycle;Signal;HPM_P1;HPM_P2
2023/12/20 00:00:04;;;;;;;8.33;6.13;;;6.00;90.80;;;5.42;94.25;97834.59;4994803;28;21013;-74
2023/12/20 00:02:31;;;;;;;8.20;6.27;;;6.00;91.10;;;5.47;93.93;97837.56;5001025;28;20465;-74
2023/12/20 00:04:58;;;;;;;6.60;5.80;;;6.10;91.00;;;5.49;94.36;97835.53;5003276;28;20462;-74
2023/12/20 00:07:25;;;;;;;8.20;6.27;;;6.10;91.00;;;5.41;94.60;97834.81;5013774;28;20463;-76
2023/12/20 00:09:54;;;;;;;7.33;5.77;;;6.10;91.10;;;5.33;95.75;97823.16;5000458;28;20833;-74
2023/12/20 00:12:22;;;;;;;8.27;5.70;;;6.10;91.60;;;5.39;96.53;97841.19;5021015;28;20993;-75
2023/12/20 00:14:50;;;;;;;9.53;5.30;;;6.10;92.00;;;5.33;96.67;97841.91;4999467;28;20497;-74
2023/12/20 00:17:17;;;;;;;6.37;4.87;;;6.10;92.10;;;5.39;97.12;97835.84;5023048;28;20465;-74
2023/12/20 00:19:44;;;;;;;8.77;5.40;;;6.10;92.60;;;5.36;98.13;97835.38;5021747;28;20459;-74
2023/12/20 00:22:12;;;;;;;7.23;5.57;;;6.10;93.10;;;5.41;98.59;97827.59;5022507;28;20561;-75
2023/12/20 00:24:39;;;;;;;7.40;6.07;;;6.10;93.30;;;5.35;99.02;97828.34;5012050;28;20458;-74
2023/12/20 00:27:09;;;;;;;8.90;5.30;;;6.10;93.80;;;5.28;99.94;97820.22;5023529;28;20462;-75
2023/12/20 00:29:36;;;;;;;6.60;5.57;;;6.00;94.10;;;5.25;100.00;97796.50;5027525;28;20463;-75
2023/12/20 00:32:04;;;;;;;6.43;5.03;;;6.00;94.50;;;5.16;100.00;97809.16;5025797;28;20456;-75
2023/12/20 00:34:32;;;;;;;7.57;4.93;;;5.90;94.70;;;5.26;100.00;97803.50;5027944;28;20450;-74
2023/12/20 00:37:00;;;;;;;5.60;5.10;;;6.00;95.40;;;5.24;100.00;97803.69;5024567;28;20508;-75
2023/12/20 00:39:28;;;;;;;8.00;5.63;;;5.90;95.30;;;5.28;100.00;97790.75;5023762;28;20482;-73
2023/12/20 00:41:55;;;;;;;6.70;4.50;;;5.90;95.60;;;5.23;100.00;97803.84;5012512;28;20512;-74
2023/12/20 00:44:24;;;;;;;7.50;5.00;;;6.00;95.40;;;5.28;100.00;97800.63;5016092;28;20454;-74
2023/12/20 00:46:51;;;;;;;9.23;4.93;;;6.00;95.40;;;5.27;100.00;97805.16;5002299;28;20512;-74
2023/12/20 00:49:19;;;;;;;6.80;5.10;;;5.90;95.70;;;5.31;100.00;97801.09;5021483;28;21002;-75
2023/12/20 00:51:46;;;;;;;6.80;5.30;;;5.90;96.00;;;5.28;100.00;97801.47;5011634;28;20978;-75
2023/12/20 00:54:13;;;;;;;6.87;5.17;;;5.90;96.20;;;5.25;100.00;97788.47;5021258;28;20461;-76
2023/12/20 00:56:41;;;;;;;6.97;5.43;;;5.90;96.70;;;5.30;100.00;97796.75;5019023;28;20724;-75
2023/12/20 00:59:09;;;;;;;6.43;5.23;;;5.90;96.70;;;5.28;100.00;97790.75;5019473;28;20483;-75
2023/12/20 01:01:38;;;;;;;6.10;4.90;;;5.90;96.40;;;5.24;100.00;97800.19;5016581;28;20454;-76
2023/12/20 01:04:05;;;;;;;10.63;5.90;;;5.90;97.00;;;5.16;100.00;97792.25;5020072;28;21229;-75
2023/12/20 01:06:32;;;;;;;5.63;4.77;;;5.90;97.00;;;5.21;100.00;97789.81;5016135;28;20478;-76
2023/12/20 01:09:00;;;;;;;12.47;5.00;;;5.90;97.40;;;5.12;100.00;97786.41;5005394;28;21050;-76
2023/12/20 01:11:27;;;;;;;7.10;5.30;;;5.80;97.30;;;5.24;100.00;97789.47;5012681;28;20509;-75
2023/12/20 01:13:54;;;;;;;6.93;4.67;;;5.90;98.10;;;5.21;100.00;97792.50;5026122;28;20904;-74
2023/12/20 01:16:22;;;;;;;6.73;4.40;;;5.90;97.90;;;5.06;100.00;97777.28;5023100;28;20462;-75
2023/12/20 01:18:51;;;;;;;5.07;4.37;;;5.80;97.40;;;5.04;100.00;97783.84;5006946;28;20475;-75
2023/12/20 01:21:19;;;;;;;8.30;4.30;;;5.80;97.10;;;5.03;100.00;97766.94;5024113;28;20493;-76
2023/12/20 01:23:46;;;;;;;4.97;3.80;;;5.80;97.80;;;5.13;100.00;97776.56;5017616;28;20447;-74
2023/12/20 01:26:13;;;;;;;4.87;3.67;;;5.80;97.60;;;5.04;100.00;97779.31;5010362;28;20520;-76
2023/12/20 01:28:41;;;;;;;3.60;3.23;;;5.80;97.40;;;5.09;100.00;97778.75;5027167;28;20453;-74
2023/12/20 01:31:09;;;;;;;3.80;3.07;;;5.80;97.40;;;5.01;100.00;97768.97;5021023;28;20451;-76
2023/12/20 01:33:36;;;;;;;3.07;2.77;;;5.80;97.00;;;5.03;100.00;97774.97;5030602;28;20457;-75
2023/12/20 01:36:06;;;;;;;2.60;2.40;;;5.80;96.80;;;5.04;100.00;97767.78;5026605;28;20464;-71
2023/12/20 01:38:33;;;;;;;3.53;2.80;;;5.80;96.30;;;4.93;100.00;97767.22;5013178;28;20481;-73
2023/12/20 01:41:01;;;;;;;2.90;2.60;;;5.70;96.10;;;5.06;100.00;97766.56;5023703;28;20449;-72
2023/12/20 01:43:28;;;;;;;3.60;2.60;;;5.70;96.60;;;5.05;100.00;97764.09;5029256;28;20454;-73
2023/12/20 01:45:58;;;;;;;3.47;2.50;;;5.70;96.20;;;4.93;100.00;97767.22;5002716;28;20462;-74
2023/12/20 01:48:27;;;;;;;3.60;2.60;;;5.70;95.80;;;4.96;100.00;97756.16;5021160;28;20458;-74
2023/12/20 01:50:55;;;;;;;3.03;2.13;;;5.70;96.30;;;4.91;100.00;97755.03;5003640;28;20982;-76
2023/12/20 01:53:26;;;;;;;2.27;1.93;;;5.70;96.00;;;4.88;100.00;97752.72;5025965;28;20498;-75
2023/12/20 01:55:57;;;;;;;4.63;2.07;;;5.60;96.30;;;4.90;100.00;97762.25;5021792;28;20477;-75
2023/12/20 01:58:25;;;;;;;2.27;2.00;;;5.60;96.10;;;4.87;100.00;97769.81;5018911;28;20578;-75
2023/12/20 02:00:53;;;;;;;3.00;2.63;;;5.60;96.00;;;4.76;100.00;97769.25;5005193;28;20457;-75
2023/12/20 02:03:21;;;;;;;2.20;2.00;;;5.60;96.30;;;4.72;100.00;97743.88;5015092;28;20584;-72
2023/12/20 02:05:48;;;;;;;2.50;2.00;;;5.60;96.80;;;4.80;100.00;97759.84;5019448;28;20458;-73
2023/12/20 02:08:15;;;;;;;1.93;1.67;;;5.50;96.70;;;4.81;100.00;97756.16;5024493;28;20516;-72
2023/12/20 02:10:45;;;;;;;2.00;1.90;;;5.50;96.50;;;4.76;100.00;97761.22;5023917;28;20488;-73
2023/12/20 02:13:12;;;;;;;2.60;1.63;;;5.50;96.90;;;4.77;100.00;97770.09;5018961;28;20461;-74
2023/12/20 02:15:42;;;;;;;2.00;1.67;;;5.50;97.30;;;4.67;100.00;97757.00;5022615;28;20469;-73
2023/12/20 02:18:10;;;;;;;2.43;1.73;;;5.50;96.20;;;4.65;100.00;97742.97;5017404;28;20469;-73
2023/12/20 02:20:37;;;;;;;1.40;1.30;;;5.40;96.40;;;4.56;100.00;97754.75;5022023;28;20698;-74
2023/12/20 02:23:06;;;;;;;1.27;1.17;;;5.40;96.00;;;4.50;100.00;97749.13;5017397;28;20519;-73
2023/12/20 02:25:33;;;;;;;2.60;1.00;;;5.40;95.90;;;4.38;100.00;97739.91;5023943;28;20450;-77
2023/12/20 02:28:02;;;;;;;1.67;1.57;;;5.30;95.00;;;4.45;100.00;97746.16;5016416;28;20497;-71
2023/12/20 02:30:29;;;;;;;1.23;1.10;;;5.20;95.00;;;4.38;100.00;97747.91;5018340;28;20481;-75
2023/12/20 02:32:58;;;;;;;1.23;1.13;;;5.20;95.80;;;4.35;100.00;97751.78;5009427;28;20601;-74
2023/12/20 02:35:25;;;;;;;1.50;1.40;;;5.10;96.00;;;4.22;100.00;97751.56;5001337;28;20461;-75
2023/12/20 02:37:53;;;;;;;1.40;1.30;;;5.10;95.50;;;4.29;100.00;97749.00;5023176;28;21047;-75
2023/12/20 02:40:21;;;;;;;3.07;1.53;;;5.10;95.90;;;4.27;100.00;97751.03;5014514;28;21059;-74
2023/12/20 02:42:49;;;;;;;0.87;0.87;;;5.10;96.50;;;4.24;100.00;97742.34;5013758;28;20819;-74
2023/12/20 02:45:16;;;;;;;1.93;0.80;;;5.00;96.70;;;4.11;100.00;97750.16;5011967;28;20473;-75
2023/12/20 02:47:44;;;;;;;1.33;1.00;;;5.00;95.30;;;4.04;100.00;97751.91;5018740;28;20465;-73
2023/12/20 02:50:12;;;;;;;1.20;1.10;;;4.90;95.20;;;3.99;100.00;97755.13;5015884;28;20469;-74
2023/12/20 02:52:40;;;;;;;1.17;1.03;;;4.80;95.30;;;3.93;100.00;97763.84;5011226;28;20463;-74
2023/12/20 02:55:07;;;;;;;1.07;0.97;;;4.80;95.40;;;3.89;100.00;97766.06;5015832;28;20465;-75
2023/12/20 02:57:41;;;;;;;1.23;1.13;;;4.80;95.80;;;3.95;100.00;97765.34;5014461;28;20640;-75
2023/12/20 03:00:10;;;;;;;0.80;0.80;;;4.70;96.00;;;3.87;100.00;97762.75;5020156;28;20990;-74
2023/12/20 03:02:38;;;;;;;2.30;0.70;;;4.70;96.50;;;3.85;100.00;97753.22;5014844;28;21262;-72
2023/12/20 03:05:07;;;;;;;1.20;1.10;;;4.70;96.80;;;3.88;100.00;97759.06;5008788;28;20447;-73
2023/12/20 03:07:35;;;;;;;1.50;1.40;;;4.70;97.50;;;3.77;100.00;97767.47;5022970;28;20542;-73
2023/12/20 03:10:02;;;;;;;1.20;1.10;;;4.70;97.40;;;3.92;100.00;97755.00;5002492;28;20455;-74
2023/12/20 03:12:29;;;;;;;1.73;1.07;;;4.70;98.30;;;3.92;100.00;97752.31;5006961;28;20835;-74
2023/12/20 03:14:59;;;;;;;1.37;1.27;;;4.70;98.70;;;4.06;100.00;97747.22;5026158;28;20453;-72
2023/12/20 03:17:26;;;;;;;1.37;1.27;;;4.70;99.90;;;3.89;100.00;97770.56;5014741;28;20465;-74
2023/12/20 03:19:53;;;;;;;1.07;0.90;;;4.70;98.60;;;3.85;100.00;97748.69;5020823;28;20546;-74
2023/12/20 03:22:21;;;;;;;0.60;0.60;;;4.70;97.80;;;3.85;100.00;97759.38;5014375;28;21141;-73
2023/12/20 03:24:48;;;;;;;1.33;0.80;;;4.60;96.80;;;3.76;100.00;97750.59;5004144;28;20470;-74
2023/12/20 03:27:15;;;;;;;0.77;0.60;;;4.60;96.20;;;3.71;100.00;97752.13;5011195;28;20471;-74
2023/12/20 03:29:43;;;;;;;1.70;0.70;;;4.50;96.10;;;3.61;100.00;97769.25;5018249;28;20938;-75
2023/12/20 03:32:12;;;;;;;1.53;0.70;;;4.50;96.10;;;3.68;100.00;97759.50;4996918;28;21028;-75
2023/12/20 03:34:40;;;;;;;1.30;0.90;;;4.50;96.70;;;3.73;100.00;97758.16;5010647;28;20509;-74
2023/12/20 03:37:07;;;;;;;0.87;0.87;;;4.50;96.70;;;3.61;100.00;97758.56;5008994;28;20453;-75
2023/12/20 03:39:34;;;;;;;0.80;0.70;;;4.50;96.80;;;3.65;100.00;97757.19;4997770;28;21063;-75
2023/12/20 03:42:02;;;;;;;0.77;0.77;;;4.50;97.20;;;3.75;100.00;97759.63;4996085;28;20838;-75
2023/12/20 03:44:29;;;;;;;2.40;1.10;;;4.50;97.70;;;3.78;100.00;97758.44;5010486;28;20468;-75
2023/12/20 03:46:57;;;;;;;1.00;0.90;;;4.50;98.30;;;3.78;100.00;97761.13;5006527;28;20457;-75
2023/12/20 03:49:26;;;;;;;1.03;0.93;;;4.50;98.20;;;3.71;100.00;97769.03;4998982;28;20947;-74
2023/12/20 03:51:53;;;;;;;1.00;0.83;;;4.50;98.30;;;3.68;100.00;97764.84;5012912;28;20465;-73
2023/12/20 03:54:21;;;;;;;1.20;0.90;;;4.50;98.60;;;3.65;100.00;97770.56;5008394;28;20551;-73
2023/12/20 03:56:48;;;;;;;1.17;1.07;;;4.40;98.50;;;3.62;100.00;97760.22;5004651;28;20954;-73
2023/12/20 03:59:16;;;;;;;1.67;1.37;;;4.50;99.00;;;3.81;100.00;97771.44;5016757;28;21263;-73
2023/12/20 04:01:45;;;;;;;1.90;1.20;;;4.50;99.50;;;3.76;100.00;97771.97;5015078;28;20461;-75
2023/12/20 04:04:14;;;;;;;1.43;1.33;;;4.50;99.40;;;3.71;100.00;97769.03;5012331;28;20544;-75
2023/12/20 04:06:43;;;;;;;1.43;1.30;;;4.50;99.50;;;3.59;100.00;97760.59;5012587;28;20459;-75
2023/12/20 04:09:10;;;;;;;4.60;2.67;;;4.50;98.60;;;3.63;100.00;97788.59;4994527;28;20513;-73
2023/12/20 04:11:38;;;;;;;1.70;1.20;;;4.40;98.20;;;3.62;100.00;97768.25;5023655;28;20492;-72
2023/12/20 04:14:06;;;;;;;1.10;1.10;;;4.40;98.60;;;3.61;100.00;97782.63;5019706;28;20543;-73
2023/12/20 04:16:35;;;;;;;1.70;1.10;;;4.40;98.10;;;3.18;100.00;97716.25;5016374;28;20489;-73
2023/12/20 04:19:03;;;;;;;1.40;1.30;;;4.40;97.90;;;3.57;100.00;97770.63;5012122;28;20554;-72
2023/12/20 04:21:30;;;;;;;1.27;1.17;;;4.30;97.90;;;3.59;100.00;97775.78;5011632;28;20556;-74
2023/12/20 04:23:59;;;;;;;1.67;1.10;;;4.40;98.50;;;3.61;100.00;97768.41;5013153;28;20461;-73
2023/12/20 04:26:26;;;;;;;1.40;1.30;;;4.30;98.20;;;3.72;100.00;97765.34;5014773;28;20993;-73
2023/12/20 04:28:54;;;;;;;1.13;1.10;;;4.40;99.00;;;3.61;100.00;97776.41;5015312;28;20470;-74
2023/12/20 04:31:21;;;;;;;2.43;1.00;;;4.40;98.80;;;3.49;100.00;97750.13;5019074;28;20951;-74
2023/12/20 04:33:48;;;;;;;1.27;1.00;;;4.30;99.30;;;3.59;100.00;97760.59;5025049;28;20908;-73
2023/12/20 04:36:16;;;;;;;1.30;1.20;;;4.40;99.00;;;3.65;100.00;97767.88;5029440;28;20726;-74
2023/12/20 04:38:43;;;;;;;1.50;1.40;;;4.40;99.40;;;3.60;100.00;97762.25;5023412;28;20457;-73
2023/12/20 04:41:15;;;;;;;3.17;1.20;;;4.40;98.80;;;2.41;100.00;97598.53;5017783;28;20466;-73
2023/12/20 04:43:42;;;;;;;1.40;1.30;;;4.30;98.00;;;3.48;100.00;97782.34;5018226;28;21043;-74
2023/12/20 04:46:09;;;;;;;1.73;1.60;;;4.30;97.90;;;3.54;100.00;97773.63;5022657;28;20459;-74
2023/12/20 04:48:38;;;;;;;1.33;1.23;;;4.30;98.30;;;3.56;100.00;97770.78;5017137;28;20535;-74
2023/12/20 04:51:05;;;;;;;1.20;1.10;;;4.40;97.80;;;3.61;100.00;97776.41;5007930;28;21008;-72
2023/12/20 04:53:33;;;;;;;1.40;1.30;;;4.40;97.90;;;3.57;100.00;97767.94;5004692;28;20474;-73
2023/12/20 04:56:01;;;;;;;1.37;1.27;;;4.30;97.70;;;3.62;100.00;97770.91;5025056;28;20493;-74
2023/12/20 04:58:29;;;;;;;1.87;1.37;;;4.30;98.00;;;3.61;100.00;97768.41;5017091;28;20800;-74
2023/12/20 05:00:57;;;;;;;1.20;1.10;;;4.30;98.00;;;3.64;100.00;97776.06;5015857;28;20485;-73
2023/12/20 05:03:24;;;;;;;1.27;1.17;;;4.30;98.10;;;3.37;100.00;97765.72;5003263;28;20607;-74
2023/12/20 05:05:52;;;;;;;1.30;1.20;;;4.30;97.60;;;3.54;100.00;97784.31;5002346;28;20466;-74
2023/12/20 05:08:20;;;;;;;1.80;1.70;;;4.30;97.60;;;3.54;100.00;97785.16;5008081;28;20476;-74
2023/12/20 05:10:47;;;;;;;1.37;1.27;;;4.30;98.00;;;3.56;100.00;97786.81;5000231;28;20470;-75
2023/12/20 05:13:15;;;;;;;1.40;1.30;;;4.30;98.00;;;3.61;100.00;97795.97;4995259;28;20547;-74
2023/12/20 05:15:44;;;;;;;1.80;1.40;;;4.30;98.70;;;3.52;100.00;97791.66;5023634;28;20498;-74
2023/12/20 05:18:12;;;;;;;1.47;1.37;;;4.30;98.20;;;3.23;100.00;97755.75;5020163;28;20486;-73
2023/12/20 05:20:39;;;;;;;1.20;1.10;;;4.30;98.20;;;3.51;100.00;97800.69;4996829;28;20471;-73
2023/12/20 05:23:07;;;;;;;1.20;1.10;;;4.30;97.90;;;3.52;100.00;97813.88;5001707;28;21016;-75
2023/12/20 05:25:35;;;;;;;0.80;0.80;;;4.30;98.30;;;3.44;100.00;97810.44;5001287;28;20465;-74
2023/12/20 05:28:03;;;;;;;1.50;1.40;;;4.30;98.40;;;3.38;100.00;97796.75;5009968;28;20468;-74
2023/12/20 05:30:30;;;;;;;1.50;1.40;;;4.30;97.50;;;3.40;100.00;97810.75;5020537;28;20466;-72
2023/12/20 05:32:59;;;;;;;1.80;1.33;;;4.30;97.70;;;3.43;100.00;97814.94;5014391;28;21017;-72
2023/12/20 05:35:26;;;;;;;1.70;1.27;;;4.20;97.90;;;3.46;100.00;97814.56;5020200;28;20469;-73
2023/12/20 05:37:54;;;;;;;1.90;1.60;;;4.30;98.30;;;3.42;100.00;97820.47;5025458;28;20465;-73
2023/12/20 05:40:21;;;;;;;1.23;1.13;;;4.20;98.10;;;3.49;100.00;97816.91;5020033;28;20693;-73
2023/12/20 05:42:49;;;;;;;2.17;1.50;;;4.30;98.10;;;3.49;100.00;97824.94;5012472;28;20541;-74
2023/12/20 05:45:16;;;;;;;1.70;1.47;;;4.30;97.90;;;3.62;100.00;97813.66;5018909;28;20544;-75
2023/12/20 05:47:43;;;;;;;1.80;1.23;;;4.40;98.40;;;3.65;100.00;97815.16;5005909;28;20966;-76
2023/12/20 05:50:13;;;;;;;2.23;1.37;;;4.40;98.40;;;3.57;100.00;97825.88;5021847;28;20466;-75
2023/12/20 05:52:41;;;;;;;1.80;1.43;;;4.40;97.70;;;3.53;100.00;97794.19;5027501;28;20469;-76
2023/12/20 05:55:09;;;;;;;1.97;1.77;;;4.40;97.80;;;3.73;100.00;97825.78;5026402;28;20466;-75
2023/12/20 05:57:36;;;;;;;2.00;1.63;;;4.40;98.00;;;3.78;100.00;97827.94;5021953;28;20455;-73
2023/12/20 06:00:04;;;;;;;1.70;1.60;;;4.50;98.00;;;3.78;100.00;97834.09;5004799;28;20476;-74
2023/12/20 06:02:32;;;;;;;1.83;1.70;;;4.50;98.00;;;3.61;100.00;97806.66;5028488;28;20453;-74
2023/12/20 06:04:59;;;;;;;2.13;1.93;;;4.50;97.40;;;3.83;100.00;97830.91;5019975;28;20478;-69
2023/12/20 06:07:28;;;;;;;3.63;2.47;;;4.50;97.20;;;3.81;100.00;97838.25;5003065;28;20988;-70
2023/12/20 06:09:56;;;;;;;3.97;2.60;;;4.50;97.00;;;3.93;100.00;97836.00;5003184;28;20562;-70
2023/12/20 06:12:23;;;;;;;2.80;2.23;;;4.50;97.40;;;3.87;100.00;97840.25;5024327;28;20464;-71
2023/12/20 06:14:51;;;;;;;3.67;2.37;;;4.50;97.10;;;3.92;100.00;97835.19;5023724;28;20466;-72
2023/12/20 06:17:18;;;;;;;3.20;2.70;;;4.60;97.70;;;4.11;100.00;97839.25;5005205;28;20453;-72
2023/12/20 06:19:48;;;;;;;2.67;2.30;;;4.80;98.50;;;4.06;100.00;97848.81;5009597;28;20472;-71
2023/12/20 06:22:16;;;;;;;3.60;2.70;;;4.90;98.30;;;3.99;100.00;97856.72;5000691;28;20460;-71
2023/12/20 06:24:45;;;;;;;2.97;2.77;;;4.70;97.30;;;3.37;100.00;97794.28;5004282;28;20476;-72
2023/12/20 06:27:12;;;;;;;3.10;2.27;;;4.60;96.90;;;3.94;100.00;97864.41;5022736;28;20465;-80
2023/12/20 06:29:42;;;;;;;2.67;2.47;;;4.60;98.10;;;4.05;100.00;97873.88;4997067;28;20449;-79
2023/12/20 06:32:09;;;;;;;7.70;2.37;;;4.70;98.20;;;4.00;100.00;97866.38;5018202;28;20466;-75
2023/12/20 06:34:38;;;;;;;2.60;2.40;;;4.70;98.10;;;3.83;100.00;97860.31;5019937;28;20469;-75
2023/12/20 06:37:06;;;;;;;4.23;2.80;;;4.60;98.30;;;3.88;100.00;97863.28;4997383;28;20477;-75
2023/12/20 06:39:33;;;;;;;5.37;3.90;;;4.70;98.40;;;3.91;100.00;97878.13;5021655;28;20478;-76
2023/12/20 06:42:04;;;;;;;5.77;4.40;;;4.60;98.30;;;3.86;100.00;97872.50;5020873;28;20464;-75
2023/12/20 06:44:31;;;;;;;7.33;4.43;;;4.60;98.70;;;3.90;100.00;97885.34;5008823;28;20449;-75
2023/12/20 06:46:59;;;;;;;5.93;4.00;;;4.60;98.50;;;3.90;100.00;97881.81;5002741;28;20518;-76
2023/12/20 06:49:26;;;;;;;4.13;3.40;;;4.60;98.50;;;3.96;100.00;97883.81;5006458;28;20538;-74
2023/12/20 06:51:54;;;;;;;10.00;4.37;;;4.60;99.00;;;3.92;100.00;97883.31;4995270;28;20454;-75
2023/12/20 06:54:22;;;;;;;12.47;4.67;;;4.70;99.20;;;3.95;100.00;97882.97;5023419;28;20550;-71
2023/12/20 06:56:50;;;;;;;6.30;4.93;;;4.70;99.30;;;4.07;100.00;97879.88;5024116;28;20455;-70
2023/12/20 06:59:18;;;;;;;9.10;5.40;;;4.70;99.90;;;4.14;100.00;97891.53;5026942;28;20945;-71
2023/12/20 07:01:49;;;;;;;9.63;5.47;;;4.70;99.90;;;4.11;100.00;97897.22;5015712;28;20509;-70
2023/12/20 07:04:16;;;;;;;5.40;4.67;;;4.80;99.90;;;4.03;100.00;97886.59;5001013;28;20518;-68
2023/12/20 07:06:43;;;;;;;7.83;4.10;;;4.80;99.90;;;3.99;100.00;97904.84;5013613;28;20484;-69
2023/12/20 07:09:13;;;;;;;7.77;4.80;;;4.70;99.70;;;3.96;100.00;97905.19;5012359;28;23766;-70
2023/12/20 07:11:41;;;;;;;8.37;4.87;;;4.70;99.80;;;4.01;100.00;97921.53;5013999;28;20469;-70
2023/12/20 07:14:08;;;;;;;6.10;5.17;;;4.70;99.90;;;3.99;100.00;97920.03;5016633;28;20464;-70
2023/12/20 07:16:37;;;;;;;5.20;4.67;;;4.70;99.90;;;4.00;100.00;97921.69;5009005;28;20470;-71
2023/12/20 07:19:05;;;;;;;6.63;4.57;;;4.70;99.90;;;3.86;100.00;97920.59;4998170;28;20461;-71
2023/12/20 07:21:33;;;;;;;4.67;4.10;;;4.70;99.90;;;4.02;100.00;97927.69;4996802;28;20843;-72
2023/12/20 07:24:00;;;;;;;5.40;4.50;;;4.70;99.90;;;4.04;100.00;97939.88;5020176;28;20461;-72
2023/12/20 07:26:27;;;;;;;4.67;4.27;;;4.70;99.90;;;4.13;100.00;97938.00;5014524;28;20456;-71
2023/12/20 07:28:55;;;;;;;9.33;4.53;;;4.80;99.90;;;4.18;100.00;97946.34;5021019;28;20553;-70
2023/12/20 07:31:23;;;;;;;4.33;3.93;;;4.80;99.90;;;4.14;100.00;97938.84;5019151;28;20472;-71
2023/12/20 07:33:52;;;;;;;4.70;4.20;;;4.90;99.90;;;4.08;100.00;97935.03;5001413;28;20470;-71
2023/12/20 07:36:21;;;;;;;5.10;4.60;;;4.80;99.90;;;4.09;100.00;97931.34;5013968;28;20579;-71
2023/12/20 07:38:48;;;;;;;6.47;4.70;;;4.80;99.90;;;4.08;100.00;97930.50;5018017;28;20466;-72
2023/12/20 07:41:17;;;;;;;5.40;3.97;;;4.80;99.90;;;3.92;100.00;97915.38;5002651;28;20475;-72
2023/12/20 07:43:44;;;;;;;5.50;4.37;;;4.90;99.90;;;4.06;100.00;97942.41;5024514;28;21040;-71
2023/12/20 07:46:22;;;;;;;5.17;4.67;;;4.80;99.90;;;3.72;100.00;97884.78;4989441;28;20462;-71
2023/12/20 07:48:52;;;;;;;4.80;4.30;;;4.80;99.90;;;4.14;100.00;97955.69;5019364;28;20465;-70
2023/12/20 07:51:21;;;;;;;4.93;4.53;;;4.90;99.90;;;4.17;100.00;97951.84;5016955;28;20512;-72
2023/12/20 07:53:48;;;;;;;4.90;4.40;;;4.90;99.90;;;4.19;100.00;97949.84;5015913;28;21042;-72
2023/12/20 07:56:16;;;;;;;5.83;4.40;;;4.90;99.90;;;3.82;100.00;97902.25;4996802;28;20586;-71
2023/12/20 07:58:43;;;;;;;4.83;4.23;;;5.00;99.90;;;4.14;100.00;97945.00;5015817;28;20509;-73
2023/12/20 08:01:11;;;;;;;6.03;5.47;;;5.00;99.90;;;4.20;100.00;97965.72;5016924;28;20487;-71
2023/12/20 08:03:38;;;;;;;5.17;4.50;;;5.00;99.90;;;4.33;100.00;97969.66;5014429;28;20536;-71
2023/12/20 08:06:07;;;;;;;5.13;4.73;;;5.00;99.90;;;4.38;100.00;97969.97;5017652;28;20470;-69
2023/12/20 08:08:35;;;;;;;7.83;5.30;;;5.10;99.90;;;4.41;100.00;97961.56;5023188;28;20539;-71
2023/12/20 08:11:02;;;;;;;7.97;5.30;;;5.10;99.90;;;4.48;100.00;97961.69;5016161;28;20493;-72
2023/12/20 08:13:29;;;;;;;6.30;5.30;;;5.20;99.90;;;4.40;100.00;97965.25;5004589;28;21115;-69
2023/12/20 08:15:58;;;;;;;5.20;4.70;;;5.20;99.90;;;4.41;100.00;97966.91;5013060;28;20920;-70
2023/12/20 08:18:25;;;;;;;5.70;4.37;;;5.20;99.70;;;4.39;100.00;97964.41;5019607;28;20467;-70
2023/12/20 08:20:53;;;;;;;4.67;4.17;;;5.20;99.90;;;4.33;100.00;97964.31;5018877;28;20803;-69
2023/12/20 08:23:22;;;;;;;4.73;4.27;;;5.20;99.80;;;4.37;100.00;97955.72;5013721;28;20458;-71
2023/12/20 08:25:49;;;;;;;5.17;4.73;;;5.10;99.90;;;4.40;100.00;97959.91;5015487;28;20458;-71
2023/12/20 08:28:17;;;;;;;5.57;5.07;;;5.20;99.90;;;4.45;100.00;97952.16;5015653;28;20552;-70
2023/12/20 08:30:44;;;;;;;5.10;4.50;;;5.20;99.90;;;4.43;100.00;97964.06;4997519;28;20464;-71
2023/12/20 08:33:12;;;;;;;5.80;4.50;;;5.20;97.40;;;4.49;100.00;97968.72;5017080;28;20492;-71
2023/12/20 08:35:40;;;;;;;4.40;4.00;;;5.30;97.20;;;4.34;100.00;97965.97;5001710;28;20462;-70
2023/12/20 08:38:08;;;;;;;6.40;4.00;;;5.20;95.80;;;4.36;100.00;97971.97;5010745;28;20458;-69
2023/12/20 08:40:38;;;;;;;5.60;4.10;;;5.20;94.70;;;4.37;100.00;97970.97;5016150;28;20486;-71
2023/12/20 08:43:05;;;;;;;4.67;3.93;;;5.20;94.60;;;4.41;100.00;97964.25;5013123;28;21025;-70
2023/12/20 08:45:32;;;;;;;4.00;3.60;;;5.20;94.00;;;4.41;99.83;97961.56;4998331;28;20815;-70
2023/12/20 08:48:01;;;;;;;3.67;3.37;;;5.20;93.20;;;4.33;98.76;97970.47;5017307;28;21049;-69
2023/12/20 08:50:28;;;;;;;5.00;3.40;;;5.20;92.20;;;4.47;99.31;97963.53;4993793;28;21087;-71
2023/12/20 08:52:55;;;;;;;3.57;3.23;;;5.30;92.50;;;4.49;98.24;97966.88;4992139;28;20470;-71
2023/12/20 08:55:22;;;;;;;3.63;3.33;;;5.30;92.00;;;4.37;96.63;97965.63;4989680;28;21031;-71
2023/12/20 08:57:50;;;;;;;3.60;3.30;;;5.30;90.80;;;4.27;97.52;97970.34;5008290;28;20470;-70
2023/12/20 09:00:20;;;;;;;3.40;3.10;;;5.20;91.00;;;4.09;95.70;97974.97;5012599;28;20464;-70
2023/12/20 09:02:47;;;;;;;3.20;2.90;;;5.00;90.40;;;4.08;96.09;97972.47;5011425;28;20473;-70
2023/12/20 09:05:15;;;;;;;3.47;3.17;;;5.00;90.40;;;4.11;95.79;97964.09;5014086;28;20469;-70
2023/12/20 09:07:43;;;;;;;3.33;3.03;;;4.90;90.50;;;4.08;95.44;97951.06;5015195;28;20564;-70
2023/12/20 09:10:10;;;;;;;3.70;2.80;;;4.90;90.70;;;4.10;95.21;97959.75;4997871;28;21303;-70
2023/12/20 09:12:39;;;;;;;4.50;3.67;;;5.00;90.60;;;3.69;95.85;97896.63;5017375;28;20929;-70
2023/12/20 09:15:08;;;;;;;5.37;3.37;;;5.00;90.80;;;4.25;95.13;97974.03;5016766;28;20486;-71
2023/12/20 09:17:36;;;;;;;3.40;3.10;;;5.00;90.70;;;4.25;94.77;97974.03;5018920;28;20980;-70
2023/12/20 09:20:06;;;;;;;4.90;4.20;;;5.00;90.80;;;4.31;95.77;97977.00;5014302;28;20458;-71
2023/12/20 09:22:34;;;;;;;5.43;4.07;;;5.00;90.80;;;4.24;95.97;97985.75;4996096;28;21017;-69
2023/12/20 09:25:02;;;;;;;4.47;3.00;;;5.00;91.40;;;4.22;94.57;97982.41;5017595;28;20886;-70
2023/12/20 09:27:30;;;;;;;3.10;2.80;;;5.00;90.40;;;4.22;93.69;97978.91;5014782;28;20470;-68
2023/12/20 09:29:58;;;;;;;3.30;3.00;;;5.00;90.10;;;4.17;93.60;97975.91;5017214;28;20555;-71
2023/12/20 09:32:27;;;;;;;3.00;2.80;;;5.00;90.00;;;4.21;94.36;97978.06;4990285;28;20461;-71
2023/12/20 09:34:54;;;;;;;3.23;2.93;;;5.00;90.20;;;4.25;94.60;97974.03;5008053;28;20464;-71
2023/12/20 09:37:22;;;;;;;5.97;3.17;;;5.00;90.40;;;4.21;93.55;97978.06;5014683;28;20833;-73
2023/12/20 09:39:49;;;;;;;3.17;2.70;;;5.10;89.50;;;4.24;92.18;97971.53;5005712;28;20449;-72
2023/12/20 09:42:26;;;;;;;8.50;3.20;;;5.10;88.90;;;4.31;92.29;97974.31;5016590;28;20491;-72
2023/12/20 09:44:53;;;;;;;3.73;3.00;;;5.10;89.00;;;4.34;91.38;97982.84;5019731;28;20556;-72
2023/12/20 09:47:25;;;;;;;2.30;2.10;;;5.10;88.20;;;4.30;89.87;97980.69;4998059;28;20512;-72
2023/12/20 09:49:54;;;;;;;3.73;2.37;;;5.20;87.00;;;4.34;90.63;97963.31;5025155;28;20609;-72
2023/12/20 09:52:23;;;;;;;3.60;2.70;;;5.20;87.80;;;4.51;89.68;97974.72;5000159;28;20474;-71
2023/12/20 09:54:54;;;;;;;5.33;1.90;;;5.30;87.50;;;4.48;86.40;97986.63;4997617;28;20516;-71
2023/12/20 09:57:23;;;;;;;4.33;1.80;;;5.40;85.20;;;4.51;85.44;97988.09;5017373;28;21182;-70
2023/12/20 09:59:50;;;;;;;4.60;2.00;;;5.40;84.10;;;4.66;85.78;97974.78;5004250;28;20470;-71
2023/12/20 10:02:20;;;;;;;2.20;1.37;;;5.50;84.60;;;4.65;85.64;97968.59;4999321;28;20493;-70
2023/12/20 10:04:49;;;;;;;3.77;1.90;;;5.50;84.20;;;4.79;84.64;97977.69;5016278;28;20502;-70
2023/12/20 10:07:17;;;;;;;3.00;1.40;;;5.50;83.80;;;4.64;82.65;97974.97;5020234;28;20493;-71
2023/12/20 10:09:46;;;;;;;2.83;2.03;;;5.50;82.60;;;4.60;82.68;97962.94;5007834;28;20818;-71
2023/12/20 10:12:13;;;;;;;2.23;1.80;;;5.60;82.30;;;4.90;81.16;97987.16;5016452;28;20457;-71
2023/12/20 10:14:41;;;;;;;4.63;1.60;;;5.70;81.70;;;4.45;80.60;97877.25;5015556;28;20462;-71
2023/12/20 10:17:09;;;;;;;6.50;1.90;;;5.80;81.70;;;5.31;78.82;97983.28;5012611;28;20590;-73
2023/12/20 10:19:38;;;;;;;3.07;1.27;;;6.10;81.00;;;5.45;77.67;97976.25;5000378;28;20457;-72
2023/12/20 10:22:07;;;;;;;3.30;1.43;;;6.20;80.10;;;5.32;76.39;97968.84;4998327;28;20505;-71
2023/12/20 10:24:34;;;;;;;1.93;1.43;;;6.20;79.00;;;5.30;77.73;97970.03;5022271;28;20512;-71
2023/12/20 10:27:06;;;;;;;7.83;1.83;;;6.20;79.50;;;5.37;77.46;97977.16;5003909;28;20463;-72
2023/12/20 10:29:35;;;;;;;4.97;2.10;;;6.20;79.10;;;5.55;76.63;97967.97;5006203;28;20552;-71